createdAt,value
2017-11-01T00:01:19.187Z,98932.27
2017-11-01T00:03:46.758Z,98927.59
2017-11-01T00:06:14.317Z,98930.62
2017-11-01T00:08:41.897Z,98929.84
2017-11-01T00:11:09.449Z,98938.70
2017-11-01T00:13:37.003Z,98932.17
2017-11-01T00:16:04.571Z,98927.76
2017-11-01T00:18:32.120Z,98930.58
2017-11-01T00:20:59.672Z,98936.14
2017-11-01T00:23:27.233Z,98926.33
2017-11-01T00:25:54.913Z,98929.62
2017-11-01T00:28:22.490Z,98932.99
2017-11-01T00:30:50.049Z,98939.71
2017-11-01T00:33:17.616Z,98932.72
2017-11-01T00:35:45.229Z,98936.19
2017-11-01T00:38:12.782Z,98934.00
2017-11-01T00:40:40.330Z,98936.18
2017-11-01T00:43:07.924Z,98927.11
2017-11-01T00:45:35.498Z,98925.67
2017-11-01T00:48:03.078Z,98922.00
2017-11-01T00:50:30.648Z,98927.42
2017-11-01T00:52:58.207Z,98916.80
2017-11-01T00:55:25.758Z,98923.46
2017-11-01T00:57:53.328Z,98927.19
2017-11-01T01:00:20.867Z,98930.58
2017-11-01T01:02:48.399Z,98924.87
2017-11-01T01:05:16.010Z,98919.33
2017-11-01T01:07:43.558Z,98916.01
2017-11-01T01:10:11.113Z,98923.45
2017-11-01T01:12:38.677Z,98926.27
2017-11-01T01:15:06.233Z,98921.09
2017-11-01T01:17:33.781Z,98923.73
2017-11-01T01:20:01.345Z,98924.77
2017-11-01T01:22:28.969Z,98912.22
2017-11-01T01:24:56.645Z,98907.15
2017-11-01T01:27:24.194Z,98906.77
2017-11-01T01:29:51.753Z,98910.23
2017-11-01T01:32:19.288Z,98902.30
2017-11-01T01:34:46.840Z,98896.26
2017-11-01T01:37:14.398Z,98896.27
2017-11-01T01:39:41.987Z,98898.06
2017-11-01T01:42:09.551Z,98903.81
2017-11-01T01:44:37.100Z,98904.41
2017-11-01T01:47:04.638Z,98896.08
2017-11-01T01:49:32.198Z,98902.91
2017-11-01T01:51:59.774Z,98895.77
2017-11-01T01:54:27.343Z,98897.46
2017-11-01T01:56:54.906Z,98896.30
2017-11-01T01:59:22.461Z,98891.34
2017-11-01T02:01:50.000Z,98891.32
2017-11-01T02:04:17.552Z,98895.06
2017-11-01T02:06:45.129Z,98889.60
2017-11-01T02:09:12.673Z,98889.68
2017-11-01T02:11:40.314Z,98887.12
2017-11-01T02:14:07.863Z,98885.19
2017-11-01T02:16:35.421Z,98882.38
2017-11-01T02:19:03.000Z,98884.75
2017-11-01T02:21:30.546Z,98888.23
2017-11-01T02:23:58.091Z,98882.71
2017-11-01T02:26:25.649Z,98883.34
2017-11-01T02:28:53.198Z,98886.42
2017-11-01T02:31:20.819Z,98891.80
2017-11-01T02:33:48.362Z,98890.13
2017-11-01T02:36:15.899Z,98887.12
2017-11-01T02:38:43.458Z,98886.50
2017-11-01T02:41:11.005Z,98890.37
2017-11-01T02:43:38.545Z,98892.78
2017-11-01T02:46:06.083Z,98891.05
2017-11-01T02:48:33.629Z,98887.61
2017-11-01T02:51:01.174Z,98892.50
2017-11-01T02:53:28.735Z,98890.30
2017-11-01T02:55:56.269Z,98889.77
2017-11-01T02:58:26.605Z,98885.41
2017-11-01T03:00:54.195Z,98890.43
2017-11-01T03:03:21.744Z,98890.47
2017-11-01T03:05:49.316Z,98893.72
2017-11-01T03:08:16.861Z,98895.67
2017-11-01T03:10:44.493Z,98891.28
2017-11-01T03:13:12.036Z,98893.42
2017-11-01T03:15:39.612Z,98890.09
2017-11-01T03:18:07.175Z,98892.21
2017-11-01T03:20:34.745Z,98891.28
2017-11-01T03:23:02.292Z,98885.73
2017-11-01T03:25:29.838Z,98878.70
2017-11-01T03:27:57.381Z,98867.73
2017-11-01T03:30:24.999Z,98875.52
2017-11-01T03:32:52.550Z,98883.25
2017-11-01T03:35:20.132Z,98878.70
2017-11-01T03:37:47.920Z,98881.37
2017-11-01T03:40:15.461Z,98875.66
2017-11-01T03:42:43.096Z,98879.71
2017-11-01T03:45:10.649Z,98870.16
2017-11-01T03:47:38.318Z,98862.95
2017-11-01T03:50:05.851Z,98854.83
2017-11-01T03:52:33.413Z,98858.84
2017-11-01T03:55:00.960Z,98860.93
2017-11-01T03:57:28.521Z,98854.62
2017-11-01T03:59:56.083Z,98851.06
2017-11-01T04:02:23.646Z,98849.64
2017-11-01T04:04:51.205Z,98841.55
2017-11-01T04:07:18.746Z,98836.61
2017-11-01T04:09:46.288Z,98844.30
2017-11-01T04:12:13.820Z,98848.88
2017-11-01T04:14:41.465Z,98851.66
2017-11-01T04:17:26.865Z,98854.89
2017-11-01T04:19:56.368Z,98840.78
2017-11-01T04:22:23.924Z,98842.66
2017-11-01T04:24:51.481Z,98841.43
2017-11-01T04:27:19.025Z,98838.59
2017-11-01T04:29:46.579Z,98841.92
2017-11-01T04:32:14.130Z,98842.68
2017-11-01T04:34:41.701Z,98846.08
2017-11-01T04:37:09.245Z,98841.91
2017-11-01T04:39:36.792Z,98840.33
2017-11-01T04:42:04.338Z,98840.92
2017-11-01T04:44:31.883Z,98835.55
2017-11-01T04:46:59.494Z,98829.82
2017-11-01T04:49:27.043Z,98821.48
2017-11-01T04:51:54.592Z,98819.13
2017-11-01T04:54:22.150Z,98830.76
2017-11-01T04:56:49.716Z,98840.79
2017-11-01T04:59:17.261Z,98838.69
2017-11-01T05:01:44.847Z,98835.53
2017-11-01T05:04:12.504Z,98839.09
2017-11-01T05:06:47.725Z,98843.59
2017-11-01T05:09:15.273Z,98834.37
2017-11-01T05:11:42.799Z,98835.86
2017-11-01T05:14:19.306Z,98839.47
2017-11-01T05:16:46.849Z,98839.89
2017-11-01T05:19:14.390Z,98846.62
2017-11-01T05:21:41.947Z,98839.16
2017-11-01T05:24:09.512Z,98836.91
2017-11-01T05:26:37.049Z,98831.77
2017-11-01T05:29:04.589Z,98835.41
2017-11-01T05:31:32.138Z,98838.06
2017-11-01T05:33:59.697Z,98845.84
2017-11-01T05:36:27.362Z,98837.27
2017-11-01T05:38:55.026Z,98833.91
2017-11-01T05:41:22.603Z,98824.96
2017-11-01T05:43:50.135Z,98820.77
2017-11-01T05:46:17.689Z,98823.41
2017-11-01T05:48:45.252Z,98819.86
2017-11-01T05:51:13.072Z,98836.09
2017-11-01T05:53:40.633Z,98829.38
2017-11-01T05:56:08.201Z,98828.49
2017-11-01T05:58:35.733Z,98831.48
2017-11-01T06:01:03.278Z,98827.37
2017-11-01T06:03:30.822Z,98825.98
2017-11-01T06:05:58.369Z,98824.80
2017-11-01T06:08:25.893Z,98827.84
2017-11-01T06:10:53.436Z,98824.80
2017-11-01T06:13:20.982Z,98832.73
2017-11-01T06:15:48.537Z,98832.78
2017-11-01T06:18:16.080Z,98834.13
2017-11-01T06:20:43.627Z,98837.52
2017-11-01T06:23:11.330Z,98833.25
2017-11-01T06:25:39.824Z,98831.70
2017-11-01T06:28:07.366Z,98831.28
2017-11-01T06:30:34.921Z,98836.95
2017-11-01T06:33:02.505Z,98837.32
2017-11-01T06:35:30.050Z,98846.74
2017-11-01T06:37:57.601Z,98845.18
2017-11-01T06:40:25.150Z,98843.02
2017-11-01T06:42:52.684Z,98847.67
2017-11-01T06:45:20.258Z,98856.38
2017-11-01T06:47:47.824Z,98852.38
2017-11-01T06:50:15.369Z,98855.38
2017-11-01T06:52:42.916Z,98855.90
2017-11-01T06:55:10.477Z,98853.28
2017-11-01T06:57:38.029Z,98867.11
2017-11-01T07:00:08.410Z,98871.34
2017-11-01T07:02:45.534Z,98870.73
2017-11-01T07:05:14.866Z,98879.73
2017-11-01T07:07:42.455Z,98873.41
2017-11-01T07:10:10.001Z,98881.47
2017-11-01T07:12:37.554Z,98884.95
2017-11-01T07:15:05.093Z,98884.14
2017-11-01T07:17:32.666Z,98895.08
2017-11-01T07:20:00.226Z,98891.89
2017-11-01T07:22:27.783Z,98897.91
2017-11-01T07:24:55.329Z,98892.23
2017-11-01T07:27:22.893Z,98888.15
2017-11-01T07:29:50.453Z,98883.44
2017-11-01T07:32:17.993Z,98877.24
2017-11-01T07:34:45.539Z,98890.10
2017-11-01T07:37:13.095Z,98890.94
2017-11-01T07:39:40.641Z,98880.94
2017-11-01T07:42:08.201Z,98886.48
2017-11-01T07:44:35.836Z,98896.67
2017-11-01T07:47:03.409Z,98885.69
2017-11-01T07:49:30.972Z,98881.47
2017-11-01T07:51:58.527Z,98884.84
2017-11-01T07:54:26.087Z,98878.89
2017-11-01T07:56:53.653Z,98880.75
2017-11-01T07:59:21.210Z,98883.48
2017-11-01T08:01:48.771Z,98875.45
2017-11-01T08:04:16.312Z,98871.75
2017-11-01T08:06:43.888Z,98875.42
2017-11-01T08:09:11.437Z,98876.85
2017-11-01T08:11:41.462Z,98880.25
2017-11-01T08:14:09.005Z,98878.64
2017-11-01T08:16:36.933Z,98873.67
2017-11-01T08:19:04.481Z,98874.12
2017-11-01T08:21:32.070Z,98880.02
2017-11-01T08:23:59.643Z,98870.88
2017-11-01T08:26:27.197Z,98871.05
2017-11-01T08:28:54.737Z,98869.89
2017-11-01T08:31:22.367Z,98871.88
2017-11-01T08:33:50.118Z,98870.54
2017-11-01T08:36:17.677Z,98869.87
2017-11-01T08:38:45.230Z,98863.98
2017-11-01T08:41:12.873Z,98860.66
2017-11-01T08:43:40.771Z,98861.83
2017-11-01T08:46:08.323Z,98857.81
2017-11-01T08:48:35.873Z,98865.03
2017-11-01T08:51:03.417Z,98862.72
2017-11-01T08:53:30.956Z,98859.59
2017-11-01T08:55:58.544Z,98874.17
2017-11-01T08:58:26.088Z,98869.32
2017-11-01T09:00:53.636Z,98863.22
2017-11-01T09:03:21.160Z,98862.59
2017-11-01T09:05:48.726Z,98864.09
2017-11-01T09:08:16.269Z,98858.61
2017-11-01T09:10:43.917Z,98866.89
2017-11-01T09:13:11.458Z,98865.59
2017-11-01T09:15:39.027Z,98868.80
2017-11-01T09:18:06.589Z,98874.09
2017-11-01T09:20:34.158Z,98869.06
2017-11-01T09:23:01.726Z,98866.25
2017-11-01T09:25:29.256Z,98868.74
2017-11-01T09:27:56.831Z,98855.05
2017-11-01T09:30:24.386Z,98854.09
2017-11-01T09:32:51.967Z,98862.11
2017-11-01T09:35:19.607Z,98863.02
2017-11-01T09:37:47.162Z,98868.03
2017-11-01T09:40:14.726Z,98863.28
2017-11-01T09:42:42.270Z,98861.83
2017-11-01T09:45:09.871Z,98867.16
2017-11-01T09:47:37.435Z,98865.77
2017-11-01T09:50:05.007Z,98867.55
2017-11-01T09:52:32.624Z,98859.92
2017-11-01T09:55:00.249Z,98860.58
2017-11-01T09:57:27.795Z,98850.13
2017-11-01T09:59:55.330Z,98848.94
2017-11-01T10:02:22.961Z,98853.80
2017-11-01T10:04:50.490Z,98846.33
2017-11-01T10:07:18.105Z,98838.19
2017-11-01T10:09:47.440Z,98836.45
2017-11-01T10:12:15.039Z,98842.89
2017-11-01T10:14:42.636Z,98834.70
2017-11-01T10:17:10.193Z,98840.09
2017-11-01T10:19:37.744Z,98825.77
2017-11-01T10:22:05.314Z,98829.73
2017-11-01T10:24:32.841Z,98831.41
2017-11-01T10:27:00.409Z,98836.28
2017-11-01T10:29:27.966Z,98829.27
2017-11-01T10:31:55.532Z,98829.41
2017-11-01T10:34:23.101Z,98824.72
2017-11-01T10:36:50.678Z,98817.48
2017-11-01T10:39:18.211Z,98816.77
2017-11-01T10:41:45.755Z,98821.97
2017-11-01T10:44:13.302Z,98822.98
2017-11-01T10:46:40.841Z,98827.58
2017-11-01T10:49:09.346Z,98826.21
2017-11-01T10:51:36.908Z,98817.58
2017-11-01T10:54:04.430Z,98813.02
2017-11-01T10:56:31.970Z,98806.55
2017-11-01T10:58:59.505Z,98813.81
2017-11-01T11:01:27.051Z,98806.07
2017-11-01T11:03:54.695Z,98805.66
2017-11-01T11:06:22.257Z,98792.45
2017-11-01T11:08:51.414Z,98796.47
2017-11-01T11:11:18.978Z,98789.84
2017-11-01T11:13:46.520Z,98789.08
2017-11-01T11:18:40.922Z,98784.36
2017-11-01T11:21:08.472Z,98779.69
2017-11-01T11:23:36.030Z,98769.34
2017-11-01T11:26:03.595Z,98765.34
2017-11-01T11:28:31.161Z,98775.02
2017-11-01T11:30:58.743Z,98762.25
2017-11-01T11:33:26.425Z,98762.15
2017-11-01T11:35:54.087Z,98765.53
2017-11-01T11:38:21.651Z,98774.93
2017-11-01T11:40:49.211Z,98771.66
2017-11-01T11:43:16.781Z,98771.87
2017-11-01T11:45:44.313Z,98763.32
2017-11-01T11:48:11.871Z,98753.67
2017-11-01T11:50:39.422Z,98750.82
2017-11-01T11:53:06.975Z,98749.72
2017-11-01T11:55:34.506Z,98743.45
2017-11-01T11:58:02.080Z,98748.81
2017-11-01T12:00:29.639Z,98735.97
2017-11-01T12:02:57.246Z,98734.15
2017-11-01T12:05:24.865Z,98734.28
2017-11-01T12:07:52.426Z,98731.09
2017-11-01T12:10:19.960Z,98729.81
2017-11-01T12:12:47.529Z,98721.17
2017-11-01T12:15:15.093Z,98724.44
2017-11-01T12:17:42.652Z,98723.44
2017-11-01T12:20:10.198Z,98720.41
2017-11-01T12:22:37.880Z,98709.45
2017-11-01T12:25:05.420Z,98712.89
2017-11-01T12:27:32.969Z,98708.26
2017-11-01T12:30:00.564Z,98711.02
2017-11-01T12:32:28.110Z,98707.26
2017-11-01T12:34:55.673Z,98707.78
2017-11-01T12:37:23.236Z,98697.39
2017-11-01T12:39:50.923Z,98685.59
2017-11-01T12:42:18.466Z,98687.95
2017-11-01T12:44:46.032Z,98682.20
2017-11-01T12:47:13.586Z,98675.48
2017-11-01T12:49:41.179Z,98678.77
2017-11-01T12:52:08.721Z,98677.45
2017-11-01T12:54:36.439Z,98669.50
2017-11-01T12:57:04.010Z,98670.97
2017-11-01T12:59:31.676Z,98660.67
2017-11-01T13:01:59.235Z,98660.54
2017-11-01T13:04:26.817Z,98665.20
2017-11-01T13:06:54.477Z,98662.73
2017-11-01T13:09:22.036Z,98657.24
2017-11-01T13:11:49.585Z,98650.31
2017-11-01T13:14:17.131Z,98655.44
2017-11-01T13:16:44.662Z,98656.77
2017-11-01T13:19:12.237Z,98653.06
2017-11-01T13:21:39.833Z,98644.63
2017-11-01T13:24:07.390Z,98642.57
2017-11-01T13:26:35.026Z,98649.30
2017-11-01T13:29:02.584Z,98645.36
2017-11-01T13:31:30.136Z,98640.97
2017-11-01T13:33:57.678Z,98639.39
2017-11-01T13:36:25.229Z,98639.53
2017-11-01T13:38:52.781Z,98642.92
2017-11-01T13:41:20.338Z,98643.03
2017-11-01T13:43:47.875Z,98635.07
2017-11-01T13:46:15.411Z,98633.72
2017-11-01T13:48:42.955Z,98626.36
2017-11-01T13:51:10.502Z,98631.31
2017-11-01T13:53:38.031Z,98631.62
2017-11-01T13:56:05.563Z,98621.08
2017-11-01T13:58:33.097Z,98625.85
2017-11-01T14:01:00.665Z,98611.94
2017-11-01T14:03:28.227Z,98611.36
2017-11-01T14:05:55.788Z,98609.13
2017-11-01T14:08:23.347Z,98608.95
2017-11-01T14:10:50.911Z,98605.80
2017-11-01T14:13:18.487Z,98600.89
2017-11-01T14:15:46.046Z,98600.36
2017-11-01T14:20:46.774Z,98600.40
2017-11-01T14:23:14.744Z,98607.55
2017-11-01T14:25:42.506Z,98602.47
2017-11-01T14:28:10.074Z,98603.63
2017-11-01T14:30:37.684Z,98599.59
2017-11-01T14:33:05.227Z,98602.53
2017-11-01T14:35:32.769Z,98601.42
2017-11-01T14:38:00.309Z,98599.53
2017-11-01T14:40:27.908Z,98597.28
2017-11-01T14:42:55.464Z,98596.95
2017-11-01T14:45:23.077Z,98591.94
2017-11-01T14:47:50.610Z,98589.45
2017-11-01T14:50:18.169Z,98579.81
2017-11-01T14:52:45.739Z,98581.92
2017-11-01T14:55:13.315Z,98580.84
2017-11-01T14:57:40.867Z,98587.80
2017-11-01T15:00:08.438Z,98581.55
2017-11-01T15:02:36.084Z,98569.12
2017-11-01T15:05:03.643Z,98571.59
2017-11-01T15:07:31.315Z,98564.64
2017-11-01T15:09:58.862Z,98569.86
2017-11-01T15:12:26.425Z,98562.26
2017-11-01T15:14:53.993Z,98567.55
2017-11-01T15:17:21.549Z,98565.81
2017-11-01T15:19:49.087Z,98571.32
2017-11-01T15:22:16.626Z,98573.23
2017-11-01T15:24:44.227Z,98562.54
2017-11-01T15:27:11.829Z,98563.75
2017-11-01T15:29:39.506Z,98566.05
2017-11-01T15:32:07.097Z,98563.83
2017-11-01T15:34:34.657Z,98572.89
2017-11-01T15:37:02.217Z,98569.39
2017-11-01T15:39:29.766Z,98570.03
2017-11-01T15:41:57.401Z,98565.66
2017-11-01T15:44:24.951Z,98570.22
2017-11-01T15:46:52.509Z,98575.48
2017-11-01T15:49:20.078Z,98571.42
2017-11-01T15:51:47.625Z,98569.31
2017-11-01T15:54:15.150Z,98568.53
2017-11-01T15:56:42.697Z,98566.38
2017-11-01T15:59:10.285Z,98568.95
2017-11-01T16:01:37.836Z,98569.28
2017-11-01T16:04:05.411Z,98562.41
2017-11-01T16:06:32.984Z,98559.88
2017-11-01T16:09:00.672Z,98558.95
2017-11-01T16:11:28.194Z,98560.02
2017-11-01T16:13:55.746Z,98550.05
2017-11-01T16:16:23.292Z,98550.06
2017-11-01T16:18:50.854Z,98548.86
2017-11-01T16:21:18.482Z,98543.88
2017-11-01T16:23:46.129Z,98547.08
2017-11-01T16:26:13.682Z,98546.40
2017-11-01T16:28:41.237Z,98547.84
2017-11-01T16:31:08.790Z,98543.53
2017-11-01T16:33:36.374Z,98543.77
2017-11-01T16:36:03.930Z,98541.78
2017-11-01T16:38:31.476Z,98537.41
2017-11-01T16:40:59.020Z,98539.62
2017-11-01T16:43:26.605Z,98543.18
2017-11-01T16:45:54.182Z,98541.02
2017-11-01T16:48:21.735Z,98540.78
2017-11-01T16:50:49.301Z,98543.20
2017-11-01T16:53:16.866Z,98545.45
2017-11-01T16:55:44.392Z,98542.34
2017-11-01T16:58:11.942Z,98536.73
2017-11-01T17:00:39.492Z,98534.55
2017-11-01T17:03:07.077Z,98548.66
2017-11-01T17:05:34.713Z,98545.73
2017-11-01T17:08:02.246Z,98555.08
2017-11-01T17:10:29.816Z,98550.16
2017-11-01T17:12:57.503Z,98549.41
2017-11-01T17:15:25.103Z,98550.94
2017-11-01T17:17:52.650Z,98550.22
2017-11-01T17:20:20.284Z,98544.92
2017-11-01T17:22:47.858Z,98545.02
2017-11-01T17:25:15.415Z,98543.53
2017-11-01T17:27:42.978Z,98538.37
2017-11-01T17:30:10.550Z,98545.77
2017-11-01T17:32:38.204Z,98540.77
2017-11-01T17:35:05.831Z,98538.82
2017-11-01T17:37:33.373Z,98539.67
2017-11-01T17:40:00.932Z,98540.56
2017-11-01T17:42:28.475Z,98544.08
2017-11-01T17:44:56.002Z,98536.56
2017-11-01T17:47:23.567Z,98540.62
2017-11-01T17:49:51.106Z,98538.49
2017-11-01T17:52:18.649Z,98535.05
2017-11-01T17:54:46.165Z,98541.89
2017-11-01T17:57:13.722Z,98540.34
2017-11-01T17:59:41.287Z,98542.61
2017-11-01T18:02:08.841Z,98546.09
2017-11-01T18:04:36.391Z,98546.05
2017-11-01T18:07:04.027Z,98548.62
2017-11-01T18:09:31.615Z,98543.27
2017-11-01T18:11:59.316Z,98542.63
2017-11-01T18:14:26.837Z,98542.89
2017-11-01T18:16:54.402Z,98541.48
2017-11-01T18:19:22.001Z,98541.61
2017-11-01T18:21:49.653Z,98544.48
2017-11-01T18:24:17.249Z,98542.18
2017-11-01T18:26:44.799Z,98540.64
2017-11-01T18:29:12.334Z,98541.84
2017-11-01T18:31:39.898Z,98532.46
2017-11-01T18:34:07.535Z,98529.27
2017-11-01T18:36:35.098Z,98532.77
2017-11-01T18:39:02.677Z,98528.63
2017-11-01T18:41:30.260Z,98523.94
2017-11-01T18:43:57.805Z,98527.89
2017-11-01T18:46:25.369Z,98528.13
2017-11-01T18:48:52.927Z,98527.45
2017-11-01T18:51:42.178Z,98524.63
2017-11-01T18:54:09.749Z,98519.05
2017-11-01T18:56:37.311Z,98521.50
2017-11-01T18:59:04.943Z,98518.48
2017-11-01T19:01:32.514Z,98511.12
2017-11-01T19:04:00.079Z,98512.91
2017-11-01T19:06:27.641Z,98510.08
2017-11-01T19:08:55.179Z,98503.58
2017-11-01T19:11:22.758Z,98505.02
2017-11-01T19:13:50.430Z,98497.91
2017-11-01T19:16:17.985Z,98499.88
2017-11-01T19:18:45.554Z,98498.16
2017-11-01T19:21:13.325Z,98495.62
2017-11-01T19:23:41.367Z,98487.61
2017-11-01T19:26:08.923Z,98486.70
2017-11-01T19:28:36.484Z,98482.76
2017-11-01T19:31:04.070Z,98478.02
2017-11-01T19:33:31.614Z,98477.20
2017-11-01T19:35:59.214Z,98475.42
2017-11-01T19:38:26.791Z,98486.43
2017-11-01T19:40:54.371Z,98487.20
2017-11-01T19:43:22.042Z,98485.00
2017-11-01T19:45:49.584Z,98479.27
2017-11-01T19:48:17.149Z,98480.99
2017-11-01T19:50:44.705Z,98483.55
2017-11-01T19:53:12.313Z,98486.11
2017-11-01T19:55:40.389Z,98487.01
2017-11-01T19:58:08.023Z,98485.82
2017-11-01T20:00:35.600Z,98483.13
2017-11-01T20:03:03.254Z,98482.11
2017-11-01T20:05:30.831Z,98477.60
2017-11-01T20:07:58.437Z,98473.72
2017-11-01T20:10:26.004Z,98475.09
2017-11-01T20:12:53.668Z,98475.56
2017-11-01T20:15:21.270Z,98475.59
2017-11-01T20:17:48.871Z,98472.05
2017-11-01T20:20:16.553Z,98474.73
2017-11-01T20:22:44.339Z,98472.69
2017-11-01T20:25:11.914Z,98475.98
2017-11-01T20:27:39.511Z,98468.56
2017-11-01T20:30:07.186Z,98471.69
2017-11-01T20:32:34.853Z,98470.34
2017-11-01T20:35:02.561Z,98466.72
2017-11-01T20:37:30.159Z,98473.68
2017-11-01T20:39:57.703Z,98465.06
2017-11-01T20:42:25.287Z,98467.84
2017-11-01T20:44:52.862Z,98471.41
2017-11-01T20:47:20.495Z,98462.48
2017-11-01T20:49:48.062Z,98458.11
2017-11-01T20:52:15.660Z,98454.90
2017-11-01T20:54:43.228Z,98452.16
2017-11-01T20:57:10.823Z,98446.02
2017-11-01T20:59:38.378Z,98446.55
2017-11-01T21:02:05.958Z,98447.81
2017-11-01T21:04:33.769Z,98446.53
2017-11-01T21:07:01.335Z,98454.05
2017-11-01T21:09:28.900Z,98450.17
2017-11-01T21:11:56.432Z,98447.34
2017-11-01T21:14:23.961Z,98441.44
2017-11-01T21:16:51.510Z,98440.02
2017-11-01T21:19:19.064Z,98437.66
2017-11-01T21:21:46.614Z,98432.49
2017-11-01T21:24:14.156Z,98431.05
2017-11-01T21:26:41.732Z,98433.02
2017-11-01T21:29:09.330Z,98426.75
2017-11-01T21:31:36.874Z,98429.21
2017-11-01T21:34:04.434Z,98427.05
2017-11-01T21:36:32.104Z,98426.32
2017-11-01T21:38:59.765Z,98417.89
2017-11-01T21:41:27.326Z,98414.77
2017-11-01T21:43:55.013Z,98409.06
2017-11-01T21:46:22.613Z,98405.38
2017-11-01T21:48:50.181Z,98405.14
2017-11-01T21:51:17.850Z,98404.08
2017-11-01T21:53:45.431Z,98401.01
2017-11-01T21:56:12.987Z,98400.89
2017-11-01T21:58:40.530Z,98395.26
2017-11-01T22:01:08.106Z,98403.06
2017-11-01T22:03:35.632Z,98400.30
2017-11-01T22:06:03.214Z,98399.38
2017-11-01T22:08:30.807Z,98398.18
2017-11-01T22:10:58.340Z,98399.42
2017-11-01T22:13:25.883Z,98399.98
2017-11-01T22:15:53.448Z,98403.48
2017-11-01T22:18:21.005Z,98406.25
2017-11-01T22:20:48.547Z,98404.13
2017-11-01T22:23:16.155Z,98401.20
2017-11-01T22:25:43.713Z,98406.39
2017-11-01T22:28:11.340Z,98402.34
2017-11-01T22:30:38.911Z,98401.73
2017-11-01T22:33:06.478Z,98399.66
2017-11-01T22:35:34.004Z,98395.91
2017-11-01T22:38:01.544Z,98392.34
2017-11-01T22:40:29.089Z,98384.48
2017-11-01T22:42:56.639Z,98382.27
2017-11-01T22:45:24.175Z,98383.48
2017-11-01T22:47:51.749Z,98374.50
2017-11-01T22:50:19.882Z,98377.02
2017-11-01T22:52:47.440Z,98372.56
2017-11-01T22:55:15.035Z,98362.37
2017-11-01T22:57:42.585Z,98364.22
2017-11-01T23:00:10.123Z,98356.06
2017-11-01T23:02:37.775Z,98350.72
2017-11-01T23:05:05.303Z,98353.86
2017-11-01T23:07:32.863Z,98355.22
2017-11-01T23:10:00.403Z,98351.72
2017-11-01T23:12:27.920Z,98345.98
2017-11-01T23:14:55.454Z,98347.41
2017-11-01T23:17:22.996Z,98341.91
2017-11-01T23:19:50.567Z,98335.11
2017-11-01T23:22:18.110Z,98335.48
2017-11-01T23:24:45.680Z,98338.87
2017-11-01T23:27:13.203Z,98330.55
2017-11-01T23:29:40.815Z,98336.21
2017-11-01T23:32:08.379Z,98329.23
2017-11-01T23:34:35.931Z,98325.84
2017-11-01T23:37:03.451Z,98325.98
2017-11-01T23:39:31.195Z,98320.17
2017-11-01T23:41:58.708Z,98316.14
2017-11-01T23:44:26.266Z,98309.66
2017-11-01T23:46:53.902Z,98304.31
2017-11-01T23:49:21.975Z,98296.78
2017-11-01T23:51:50.901Z,98297.59
2017-11-01T23:54:18.460Z,98295.22
2017-11-01T23:56:46.007Z,98299.91
2017-11-01T23:59:13.546Z,98294.47
